sensor_id;sensor_type;location;lat;lon;timestamp;pressure;altitude;pressure_sealevel;temperature
73265;BMP280;61493;51.008;14.088;2023-11-21T00:00:24;97178.19;;;4.67
73265;BMP280;61493;51.008;14.088;2023-11-21T00:02:49;97183.97;;;4.91
73265;BMP280;61493;51.008;14.088;2023-11-21T00:05:16;97181.69;;;5.06
73265;BMP280;61493;51.008;14.088;2023-11-21T00:07:42;97192.63;;;5.17
73265;BMP280;61493;51.008;14.088;2023-11-21T00:10:08;97181.72;;;5.32
73265;BMP280;61493;51.008;14.088;2023-11-21T00:12:35;97189.34;;;5.55
73265;BMP280;61493;51.008;14.088;2023-11-21T00:15:00;97185.50;;;5.60
73265;BMP280;61493;51.008;14.088;2023-11-21T00:17:27;97187.03;;;5.70
73265;BMP280;61493;51.008;14.088;2023-11-21T00:19:52;97186.94;;;5.86
73265;BMP280;61493;51.008;14.088;2023-11-21T00:22:18;97183.13;;;5.87
73265;BMP280;61493;51.008;14.088;2023-11-21T00:24:44;97185.88;;;5.96
73265;BMP280;61493;51.008;14.088;2023-11-21T00:27:09;97183.44;;;6.02
73265;BMP280;61493;51.008;14.088;2023-11-21T00:29:35;97185.75;;;6.00
73265;BMP280;61493;51.008;14.088;2023-11-21T00:32:00;97193.88;;;6.06
73265;BMP280;61493;51.008;14.088;2023-11-21T00:34:25;97190.06;;;6.07
73265;BMP280;61493;51.008;14.088;2023-11-21T00:36:51;97201.22;;;6.11
73265;BMP280;61493;51.008;14.088;2023-11-21T00:39:16;97203.31;;;6.16
73265;BMP280;61493;51.008;14.088;2023-11-21T00:41:41;97199.53;;;6.17
73265;BMP280;61493;51.008;14.088;2023-11-21T00:44:07;97202.78;;;6.21
73265;BMP280;61493;51.008;14.088;2023-11-21T00:46:32;97199.41;;;6.20
73265;BMP280;61493;51.008;14.088;2023-11-21T00:48:58;97186.81;;;6.15
73265;BMP280;61493;51.008;14.088;2023-11-21T00:51:23;97201.16;;;6.23
73265;BMP280;61493;51.008;14.088;2023-11-21T00:53:49;97199.72;;;6.22
73265;BMP280;61493;51.008;14.088;2023-11-21T00:56:15;97201.59;;;6.22
73265;BMP280;61493;51.008;14.088;2023-11-21T00:58:46;97198.78;;;6.29
73265;BMP280;61493;51.008;14.088;2023-11-21T01:01:15;97201.69;;;6.31
73265;BMP280;61493;51.008;14.088;2023-11-21T01:03:40;97198.00;;;6.29
73265;BMP280;61493;51.008;14.088;2023-11-21T01:06:06;97203.59;;;6.31
73265;BMP280;61493;51.008;14.088;2023-11-21T01:08:33;97202.44;;;6.32
73265;BMP280;61493;51.008;14.088;2023-11-21T01:10:58;97198.13;;;6.25
73265;BMP280;61493;51.008;14.088;2023-11-21T01:13:24;97208.25;;;6.27
73265;BMP280;61493;51.008;14.088;2023-11-21T01:15:54;97209.31;;;6.29
73265;BMP280;61493;51.008;14.088;2023-11-21T01:18:20;97218.66;;;6.30
73265;BMP280;61493;51.008;14.088;2023-11-21T01:20:45;97216.34;;;6.32
73265;BMP280;61493;51.008;14.088;2023-11-21T01:23:12;97216.94;;;6.36
73265;BMP280;61493;51.008;14.088;2023-11-21T01:25:37;97213.28;;;6.34
73265;BMP280;61493;51.008;14.088;2023-11-21T01:28:03;97218.84;;;6.36
73265;BMP280;61493;51.008;14.088;2023-11-21T01:30:28;97218.41;;;6.37
73265;BMP280;61493;51.008;14.088;2023-11-21T01:32:53;97215.19;;;6.33
73265;BMP280;61493;51.008;14.088;2023-11-21T01:35:19;97221.28;;;6.30
73265;BMP280;61493;51.008;14.088;2023-11-21T01:37:44;97217.19;;;6.29
73265;BMP280;61493;51.008;14.088;2023-11-21T01:40:10;97215.19;;;6.33
73265;BMP280;61493;51.008;14.088;2023-11-21T01:42:38;97223.25;;;6.39
73265;BMP280;61493;51.008;14.088;2023-11-21T01:45:04;97222.19;;;6.36
73265;BMP280;61493;51.008;14.088;2023-11-21T01:47:32;97220.03;;;6.35
73265;BMP280;61493;51.008;14.088;2023-11-21T01:49:57;97224.81;;;6.36
73265;BMP280;61493;51.008;14.088;2023-11-21T01:52:23;97218.97;;;6.32
73265;BMP280;61493;51.008;14.088;2023-11-21T01:54:49;97221.59;;;6.32
73265;BMP280;61493;51.008;14.088;2023-11-21T01:57:15;97225.69;;;6.33
73265;BMP280;61493;51.008;14.088;2023-11-21T01:59:41;97227.59;;;6.33
73265;BMP280;61493;51.008;14.088;2023-11-21T02:02:07;97224.66;;;6.31
73265;BMP280;61493;51.008;14.088;2023-11-21T02:04:33;97229.19;;;6.30
73265;BMP280;61493;51.008;14.088;2023-11-21T02:06:59;97224.53;;;6.34
73265;BMP280;61493;51.008;14.088;2023-11-21T02:09:26;97219.28;;;6.34
73265;BMP280;61493;51.008;14.088;2023-11-21T02:11:56;97222.75;;;6.31
73265;BMP280;61493;51.008;14.088;2023-11-21T02:14:28;97211.50;;;6.31
73265;BMP280;61493;51.008;14.088;2023-11-21T02:16:54;97215.59;;;6.32
73265;BMP280;61493;51.008;14.088;2023-11-21T02:19:21;97226.63;;;6.39
73265;BMP280;61493;51.008;14.088;2023-11-21T02:21:56;97219.47;;;6.40
73265;BMP280;61493;51.008;14.088;2023-11-21T02:24:23;97225.78;;;6.42
73265;BMP280;61493;51.008;14.088;2023-11-21T02:26:49;97223.88;;;6.43
73265;BMP280;61493;51.008;14.088;2023-11-21T02:29:17;97216.72;;;6.43
73265;BMP280;61493;51.008;14.088;2023-11-21T02:31:43;97233.59;;;6.46
73265;BMP280;61493;51.008;14.088;2023-11-21T02:34:15;97223.78;;;6.46
73265;BMP280;61493;51.008;14.088;2023-11-21T02:36:41;97210.81;;;6.39
73265;BMP280;61493;51.008;14.088;2023-11-21T02:39:08;97223.06;;;6.46
73265;BMP280;61493;51.008;14.088;2023-11-21T02:41:33;97227.88;;;6.47
73265;BMP280;61493;51.008;14.088;2023-11-21T02:44:00;97228.59;;;6.48
73265;BMP280;61493;51.008;14.088;2023-11-21T02:46:25;97236.94;;;6.46
73265;BMP280;61493;51.008;14.088;2023-11-21T02:48:50;97230.19;;;6.45
73265;BMP280;61493;51.008;14.088;2023-11-21T02:51:16;97234.59;;;6.48
73265;BMP280;61493;51.008;14.088;2023-11-21T02:53:41;97223.06;;;6.46
73265;BMP280;61493;51.008;14.088;2023-11-21T02:56:07;97232.25;;;6.51
73265;BMP280;61493;51.008;14.088;2023-11-21T02:58:32;97222.63;;;6.47
73265;BMP280;61493;51.008;14.088;2023-11-21T03:00:57;97236.38;;;6.52
73265;BMP280;61493;51.008;14.088;2023-11-21T03:03:23;97234.50;;;6.52
73265;BMP280;61493;51.008;14.088;2023-11-21T03:05:50;97233.31;;;6.53
73265;BMP280;61493;51.008;14.088;2023-11-21T03:08:15;97228.50;;;6.52
73265;BMP280;61493;51.008;14.088;2023-11-21T03:10:41;97246.06;;;6.55
73265;BMP280;61493;51.008;14.088;2023-11-21T03:13:06;97232.72;;;6.49
73265;BMP280;61493;51.008;14.088;2023-11-21T03:15:31;97243.25;;;6.49
73265;BMP280;61493;51.008;14.088;2023-11-21T03:17:58;97240.72;;;6.45
73265;BMP280;61493;51.008;14.088;2023-11-21T03:20:23;97239.38;;;6.41
73265;BMP280;61493;51.008;14.088;2023-11-21T03:22:48;97242.41;;;6.39
73265;BMP280;61493;51.008;14.088;2023-11-21T03:25:14;97235.81;;;6.35
73265;BMP280;61493;51.008;14.088;2023-11-21T03:27:41;97241.16;;;6.31
73265;BMP280;61493;51.008;14.088;2023-11-21T03:30:08;97242.13;;;6.24
73265;BMP280;61493;51.008;14.088;2023-11-21T03:32:34;97243.06;;;6.18
73265;BMP280;61493;51.008;14.088;2023-11-21T03:34:59;97242.13;;;6.12
73265;BMP280;61493;51.008;14.088;2023-11-21T03:37:25;97237.19;;;6.01
73265;BMP280;61493;51.008;14.088;2023-11-21T03:39:52;97245.31;;;6.07
73265;BMP280;61493;51.008;14.088;2023-11-21T03:42:17;97248.03;;;6.03
73265;BMP280;61493;51.008;14.088;2023-11-21T03:44:43;97246.03;;;5.94
73265;BMP280;61493;51.008;14.088;2023-11-21T03:47:08;97249.72;;;5.84
73265;BMP280;61493;51.008;14.088;2023-11-21T03:49:33;97253.91;;;5.82
73265;BMP280;61493;51.008;14.088;2023-11-21T03:51:58;97256.75;;;5.87
73265;BMP280;61493;51.008;14.088;2023-11-21T03:54:24;97249.09;;;5.80
73265;BMP280;61493;51.008;14.088;2023-11-21T03:56:49;97250.25;;;5.79
73265;BMP280;61493;51.008;14.088;2023-11-21T03:59:14;97257.44;;;5.62
73265;BMP280;61493;51.008;14.088;2023-11-21T04:01:39;97262.28;;;5.51
73265;BMP280;61493;51.008;14.088;2023-11-21T04:04:05;97260.38;;;5.39
73265;BMP280;61493;51.008;14.088;2023-11-21T04:06:30;97257.50;;;5.33
73265;BMP280;61493;51.008;14.088;2023-11-21T04:08:57;97253.28;;;5.23
73265;BMP280;61493;51.008;14.088;2023-11-21T04:11:23;97258.72;;;5.16
73265;BMP280;61493;51.008;14.088;2023-11-21T04:13:48;97257.16;;;5.18
73265;BMP280;61493;51.008;14.088;2023-11-21T04:16:13;97260.84;;;5.21
73265;BMP280;61493;51.008;14.088;2023-11-21T04:18:39;97252.31;;;5.17
73265;BMP280;61493;51.008;14.088;2023-11-21T04:21:05;97266.19;;;5.17
73265;BMP280;61493;51.008;14.088;2023-11-21T04:23:30;97255.16;;;5.10
73265;BMP280;61493;51.008;14.088;2023-11-21T04:25:59;97265.81;;;5.02
73265;BMP280;61493;51.008;14.088;2023-11-21T04:28:24;97265.38;;;4.91
73265;BMP280;61493;51.008;14.088;2023-11-21T04:30:50;97265.75;;;4.90
73265;BMP280;61493;51.008;14.088;2023-11-21T04:33:15;97275.19;;;4.87
73265;BMP280;61493;51.008;14.088;2023-11-21T04:35:41;97274.88;;;4.85
73265;BMP280;61493;51.008;14.088;2023-11-21T04:38:07;97283.66;;;4.95
73265;BMP280;61493;51.008;14.088;2023-11-21T04:40:32;97268.78;;;5.04
73265;BMP280;61493;51.008;14.088;2023-11-21T04:42:57;97272.78;;;5.09
73265;BMP280;61493;51.008;14.088;2023-11-21T04:45:22;97274.69;;;5.09
73265;BMP280;61493;51.008;14.088;2023-11-21T04:47:48;97273.31;;;5.04
73265;BMP280;61493;51.008;14.088;2023-11-21T04:50:13;97280.94;;;4.98
73265;BMP280;61493;51.008;14.088;2023-11-21T04:52:39;97286.28;;;4.95
73265;BMP280;61493;51.008;14.088;2023-11-21T04:55:04;97286.44;;;4.88
73265;BMP280;61493;51.008;14.088;2023-11-21T04:57:31;97288.84;;;4.82
73265;BMP280;61493;51.008;14.088;2023-11-21T04:59:56;97289.91;;;4.85
73265;BMP280;61493;51.008;14.088;2023-11-21T05:02:22;97291.75;;;5.00
73265;BMP280;61493;51.008;14.088;2023-11-21T05:04:47;97292.88;;;5.16
73265;BMP280;61493;51.008;14.088;2023-11-21T05:07:15;97288.94;;;5.24
73265;BMP280;61493;51.008;14.088;2023-11-21T05:09:44;97286.75;;;5.35
73265;BMP280;61493;51.008;14.088;2023-11-21T05:12:14;97291.75;;;5.46
73265;BMP280;61493;51.008;14.088;2023-11-21T05:14:39;97297.50;;;5.53
73265;BMP280;61493;51.008;14.088;2023-11-21T05:17:05;97298.91;;;5.58
73265;BMP280;61493;51.008;14.088;2023-11-21T05:19:30;97301.44;;;5.62
73265;BMP280;61493;51.008;14.088;2023-11-21T05:21:55;97303.19;;;5.65
73265;BMP280;61493;51.008;14.088;2023-11-21T05:24:21;97307.97;;;5.70
73265;BMP280;61493;51.008;14.088;2023-11-21T05:26:46;97313.03;;;5.77
73265;BMP280;61493;51.008;14.088;2023-11-21T05:29:11;97297.09;;;5.68
73265;BMP280;61493;51.008;14.088;2023-11-21T05:31:37;97297.66;;;5.75
73265;BMP280;61493;51.008;14.088;2023-11-21T05:34:03;97302.53;;;5.77
73265;BMP280;61493;51.008;14.088;2023-11-21T05:36:30;97305.56;;;5.75
73265;BMP280;61493;51.008;14.088;2023-11-21T05:38:55;97306.59;;;5.78
73265;BMP280;61493;51.008;14.088;2023-11-21T05:41:20;97309.22;;;5.78
73265;BMP280;61493;51.008;14.088;2023-11-21T05:43:46;97311.03;;;5.81
73265;BMP280;61493;51.008;14.088;2023-11-21T05:46:11;97317.78;;;5.82
73265;BMP280;61493;51.008;14.088;2023-11-21T05:48:38;97316.59;;;5.83
73265;BMP280;61493;51.008;14.088;2023-11-21T05:51:06;97323.34;;;5.84
73265;BMP280;61493;51.008;14.088;2023-11-21T05:53:34;97324.09;;;5.85
73265;BMP280;61493;51.008;14.088;2023-11-21T05:55:59;97329.66;;;5.87
73265;BMP280;61493;51.008;14.088;2023-11-21T05:58:25;97323.03;;;5.82
73265;BMP280;61493;51.008;14.088;2023-11-21T06:00:50;97331.16;;;5.88
73265;BMP280;61493;51.008;14.088;2023-11-21T06:03:16;97331.97;;;5.85
73265;BMP280;61493;51.008;14.088;2023-11-21T06:05:42;97339.03;;;5.88
73265;BMP280;61493;51.008;14.088;2023-11-21T06:08:09;97334.50;;;5.88
73265;BMP280;61493;51.008;14.088;2023-11-21T06:10:34;97328.91;;;5.86
73265;BMP280;61493;51.008;14.088;2023-11-21T06:12:59;97336.41;;;5.88
73265;BMP280;61493;51.008;14.088;2023-11-21T06:15:25;97336.41;;;5.88
73265;BMP280;61493;51.008;14.088;2023-11-21T06:17:51;97335.00;;;5.83
73265;BMP280;61493;51.008;14.088;2023-11-21T06:20:19;97336.81;;;5.86
73265;BMP280;61493;51.008;14.088;2023-11-21T06:22:47;97333.22;;;5.80
73265;BMP280;61493;51.008;14.088;2023-11-21T06:25:13;97346.03;;;5.78
73265;BMP280;61493;51.008;14.088;2023-11-21T06:27:39;97346.56;;;5.73
73265;BMP280;61493;51.008;14.088;2023-11-21T06:30:05;97337.81;;;5.63
73265;BMP280;61493;51.008;14.088;2023-11-21T06:32:34;97349.44;;;5.62
73265;BMP280;61493;51.008;14.088;2023-11-21T06:35:01;97352.53;;;5.61
73265;BMP280;61493;51.008;14.088;2023-11-21T06:37:28;97349.91;;;5.61
73265;BMP280;61493;51.008;14.088;2023-11-21T06:39:54;97357.66;;;5.64
73265;BMP280;61493;51.008;14.088;2023-11-21T06:42:19;97350.84;;;5.67
73265;BMP280;61493;51.008;14.088;2023-11-21T06:44:45;97353.31;;;5.74
73265;BMP280;61493;51.008;14.088;2023-11-21T06:47:10;97356.16;;;5.80
73265;BMP280;61493;51.008;14.088;2023-11-21T06:49:36;97361.31;;;5.83
73265;BMP280;61493;51.008;14.088;2023-11-21T06:52:01;97354.06;;;5.87
73265;BMP280;61493;51.008;14.088;2023-11-21T06:54:32;97353.56;;;5.92
73265;BMP280;61493;51.008;14.088;2023-11-21T06:56:58;97360.28;;;5.93
73265;BMP280;61493;51.008;14.088;2023-11-21T06:59:23;97361.34;;;5.96
73265;BMP280;61493;51.008;14.088;2023-11-21T07:01:49;97362.72;;;6.00
73265;BMP280;61493;51.008;14.088;2023-11-21T07:04:14;97368.28;;;6.03
73265;BMP280;61493;51.008;14.088;2023-11-21T07:06:40;97368.28;;;6.03
73265;BMP280;61493;51.008;14.088;2023-11-21T07:09:06;97367.75;;;6.08
73265;BMP280;61493;51.008;14.088;2023-11-21T07:11:33;97366.94;;;6.11
73265;BMP280;61493;51.008;14.088;2023-11-21T07:13:58;97378.91;;;6.12
73265;BMP280;61493;51.008;14.088;2023-11-21T07:16:24;97378.09;;;6.15
73265;BMP280;61493;51.008;14.088;2023-11-21T07:18:50;97384.50;;;6.14
73265;BMP280;61493;51.008;14.088;2023-11-21T07:21:15;97379.16;;;6.17
73265;BMP280;61493;51.008;14.088;2023-11-21T07:23:41;97381.69;;;6.21
73265;BMP280;61493;51.008;14.088;2023-11-21T07:26:07;97379.66;;;6.25
73265;BMP280;61493;51.008;14.088;2023-11-21T07:28:34;97383.38;;;6.28
73265;BMP280;61493;51.008;14.088;2023-11-21T07:31:00;97384.44;;;6.30
73265;BMP280;61493;51.008;14.088;2023-11-21T07:33:26;97390.03;;;6.32
73265;BMP280;61493;51.008;14.088;2023-11-21T07:35:51;97398.75;;;6.29
73265;BMP280;61493;51.008;14.088;2023-11-21T07:38:17;97394.94;;;6.30
73265;BMP280;61493;51.008;14.088;2023-11-21T07:40:43;97399.69;;;6.35
73265;BMP280;61493;51.008;14.088;2023-11-21T07:43:08;97395.88;;;6.36
73265;BMP280;61493;51.008;14.088;2023-11-21T07:45:34;97395.03;;;6.39
73265;BMP280;61493;51.008;14.088;2023-11-21T07:47:59;97394.94;;;6.43
73265;BMP280;61493;51.008;14.088;2023-11-21T07:50:25;97402.75;;;6.46
73265;BMP280;61493;51.008;14.088;2023-11-21T07:52:51;97405.69;;;6.48
73265;BMP280;61493;51.008;14.088;2023-11-21T07:55:19;97401.19;;;6.49
73265;BMP280;61493;51.008;14.088;2023-11-21T07:57:44;97407.38;;;6.55
73265;BMP280;61493;51.008;14.088;2023-11-21T08:00:10;97407.50;;;6.52
73265;BMP280;61493;51.008;14.088;2023-11-21T08:02:37;97409.56;;;6.57
73265;BMP280;61493;51.008;14.088;2023-11-21T08:05:03;97401.69;;;6.57
73265;BMP280;61493;51.008;14.088;2023-11-21T08:07:29;97409.38;;;6.64
73265;BMP280;61493;51.008;14.088;2023-11-21T08:09:54;97402.41;;;6.70
73265;BMP280;61493;51.008;14.088;2023-11-21T08:12:19;97401.88;;;6.75
73265;BMP280;61493;51.008;14.088;2023-11-21T08:14:45;97406.09;;;6.85
73265;BMP280;61493;51.008;14.088;2023-11-21T08:17:11;97406.41;;;6.87
73265;BMP280;61493;51.008;14.088;2023-11-21T08:19:36;97400.28;;;6.90
73265;BMP280;61493;51.008;14.088;2023-11-21T08:22:03;97405.97;;;7.02
73265;BMP280;61493;51.008;14.088;2023-11-21T08:24:29;97408.09;;;6.94
73265;BMP280;61493;51.008;14.088;2023-11-21T08:26:55;97413.88;;;7.02
73265;BMP280;61493;51.008;14.088;2023-11-21T08:29:21;97408.03;;;7.07
73265;BMP280;61493;51.008;14.088;2023-11-21T08:31:48;97414.56;;;7.15
73265;BMP280;61493;51.008;14.088;2023-11-21T08:34:13;97410.34;;;7.17
73265;BMP280;61493;51.008;14.088;2023-11-21T08:36:43;97413.19;;;7.23
73265;BMP280;61493;51.008;14.088;2023-11-21T08:39:09;97411.06;;;7.18
73265;BMP280;61493;51.008;14.088;2023-11-21T08:41:35;97422.78;;;7.17
73265;BMP280;61493;51.008;14.088;2023-11-21T08:44:02;97422.78;;;7.17
73265;BMP280;61493;51.008;14.088;2023-11-21T08:46:32;97423.63;;;7.14
73265;BMP280;61493;51.008;14.088;2023-11-21T08:48:58;97423.97;;;7.03
73265;BMP280;61493;51.008;14.088;2023-11-21T08:51:24;97430.41;;;7.02
73265;BMP280;61493;51.008;14.088;2023-11-21T08:53:50;97423.44;;;7.08
73265;BMP280;61493;51.008;14.088;2023-11-21T08:56:15;97429.56;;;7.05
73265;BMP280;61493;51.008;14.088;2023-11-21T08:58:40;97426.41;;;7.10
73265;BMP280;61493;51.008;14.088;2023-11-21T09:01:06;97420.16;;;7.17
73265;BMP280;61493;51.008;14.088;2023-11-21T09:03:32;97425.75;;;7.19
73265;BMP280;61493;51.008;14.088;2023-11-21T09:05:59;97428.78;;;7.17
73265;BMP280;61493;51.008;14.088;2023-11-21T09:08:25;97429.34;;;7.12
73265;BMP280;61493;51.008;14.088;2023-11-21T09:10:50;97435.78;;;7.11
73265;BMP280;61493;51.008;14.088;2023-11-21T09:13:15;97435.63;;;7.15
73265;BMP280;61493;51.008;14.088;2023-11-21T09:15:41;97433.88;;;7.12
73265;BMP280;61493;51.008;14.088;2023-11-21T09:18:08;97436.38;;;7.15
73265;BMP280;61493;51.008;14.088;2023-11-21T09:20:35;97430.38;;;7.15
73265;BMP280;61493;51.008;14.088;2023-11-21T09:23:00;97441.75;;;7.25
73265;BMP280;61493;51.008;14.088;2023-11-21T09:25:26;97434.88;;;7.27
73265;BMP280;61493;51.008;14.088;2023-11-21T09:27:51;97444.06;;;7.23
73265;BMP280;61493;51.008;14.088;2023-11-21T09:30:16;97440.50;;;7.16
73265;BMP280;61493;51.008;14.088;2023-11-21T09:32:42;97442.81;;;7.14
73265;BMP280;61493;51.008;14.088;2023-11-21T09:35:10;97446.16;;;7.15
73265;BMP280;61493;51.008;14.088;2023-11-21T09:37:36;97442.28;;;7.07
73265;BMP280;61493;51.008;14.088;2023-11-21T09:40:04;97445.38;;;7.05
73265;BMP280;61493;51.008;14.088;2023-11-21T09:42:36;97445.69;;;6.94
73265;BMP280;61493;51.008;14.088;2023-11-21T09:45:11;97450.13;;;6.97
73265;BMP280;61493;51.008;14.088;2023-11-21T09:47:39;97460.25;;;6.99
73265;BMP280;61493;51.008;14.088;2023-11-21T09:50:05;97462.31;;;7.04
73265;BMP280;61493;51.008;14.088;2023-11-21T09:53:21;97466.84;;;7.04
73265;BMP280;61493;51.008;14.088;2023-11-21T09:55:27;97466.66;;;7.11
73265;BMP280;61493;51.008;14.088;2023-11-21T09:58:01;97469.88;;;7.15
73265;BMP280;61493;51.008;14.088;2023-11-21T10:00:27;97465.59;;;7.21
73265;BMP280;61493;51.008;14.088;2023-11-21T10:02:53;97466.72;;;7.20
73265;BMP280;61493;51.008;14.088;2023-11-21T10:05:19;97464.34;;;7.13
73265;BMP280;61493;51.008;14.088;2023-11-21T10:07:45;97472.34;;;7.09
73265;BMP280;61493;51.008;14.088;2023-11-21T10:10:13;97470.97;;;7.05
73265;BMP280;61493;51.008;14.088;2023-11-21T10:12:42;97475.63;;;7.01
73265;BMP280;61493;51.008;14.088;2023-11-21T10:15:11;97475.63;;;7.01
73265;BMP280;61493;51.008;14.088;2023-11-21T10:17:42;97479.09;;;7.10
73265;BMP280;61493;51.008;14.088;2023-11-21T10:20:14;97473.63;;;7.05
73265;BMP280;61493;51.008;14.088;2023-11-21T10:22:40;97475.19;;;7.02
73265;BMP280;61493;51.008;14.088;2023-11-21T10:25:06;97490.47;;;6.94
73265;BMP280;61493;51.008;14.088;2023-11-21T10:27:33;97493.75;;;6.86
73265;BMP280;61493;51.008;14.088;2023-11-21T10:30:01;97484.78;;;6.83
73265;BMP280;61493;51.008;14.088;2023-11-21T10:32:28;97489.09;;;6.77
73265;BMP280;61493;51.008;14.088;2023-11-21T10:34:57;97489.81;;;6.65
73265;BMP280;61493;51.008;14.088;2023-11-21T10:37:22;97493.50;;;6.67
73265;BMP280;61493;51.008;14.088;2023-11-21T10:39:48;97491.72;;;6.64
73265;BMP280;61493;51.008;14.088;2023-11-21T10:42:14;97498.16;;;6.63
73265;BMP280;61493;51.008;14.088;2023-11-21T10:44:41;97494.66;;;6.54
73265;BMP280;61493;51.008;14.088;2023-11-21T10:47:09;97508.25;;;6.52
73265;BMP280;61493;51.008;14.088;2023-11-21T10:49:37;97502.03;;;6.46
73265;BMP280;61493;51.008;14.088;2023-11-21T10:52:02;97509.50;;;6.47
73265;BMP280;61493;51.008;14.088;2023-11-21T10:54:29;97507.72;;;6.44
73265;BMP280;61493;51.008;14.088;2023-11-21T10:56:59;97506.53;;;6.33
73265;BMP280;61493;51.008;14.088;2023-11-21T10:59:31;97517.22;;;6.25
73265;BMP280;61493;51.008;14.088;2023-11-21T11:02:01;97517.97;;;6.26
73265;BMP280;61493;51.008;14.088;2023-11-21T11:04:28;97525.47;;;6.28
73265;BMP280;61493;51.008;14.088;2023-11-21T11:06:57;97520.28;;;6.24
73265;BMP280;61493;51.008;14.088;2023-11-21T11:09:27;97531.09;;;6.13
73265;BMP280;61493;51.008;14.088;2023-11-21T11:11:52;97527.78;;;6.09
73265;BMP280;61493;51.008;14.088;2023-11-21T11:14:19;97529.06;;;6.05
73265;BMP280;61493;51.008;14.088;2023-11-21T11:16:45;97528.00;;;6.02
73265;BMP280;61493;51.008;14.088;2023-11-21T11:19:10;97534.66;;;6.07
73265;BMP280;61493;51.008;14.088;2023-11-21T11:21:52;97546.47;;;5.98
73265;BMP280;61493;51.008;14.088;2023-11-21T11:29:54;97546.00;;;6.04
73265;BMP280;61493;51.008;14.088;2023-11-21T11:35:46;97541.31;;;5.95
73265;BMP280;61493;51.008;14.088;2023-11-21T11:38:14;97546.53;;;5.82
73265;BMP280;61493;51.008;14.088;2023-11-21T11:40:47;97548.16;;;5.76
73265;BMP280;61493;51.008;14.088;2023-11-21T11:43:12;97557.56;;;5.77
73265;BMP280;61493;51.008;14.088;2023-11-21T11:45:38;97554.59;;;5.75
73265;BMP280;61493;51.008;14.088;2023-11-21T11:48:08;97558.44;;;5.70
73265;BMP280;61493;51.008;14.088;2023-11-21T11:50:42;97552.59;;;5.63
73265;BMP280;61493;51.008;14.088;2023-11-21T11:53:15;97550.81;;;5.60
73265;BMP280;61493;51.008;14.088;2023-11-21T11:55:42;97553.84;;;5.58
73265;BMP280;61493;51.008;14.088;2023-11-21T11:58:08;97548.50;;;5.45
73265;BMP280;61493;51.008;14.088;2023-11-21T12:00:35;97561.06;;;5.38
73265;BMP280;61493;51.008;14.088;2023-11-21T12:03:04;97564.91;;;5.33
73265;BMP280;61493;51.008;14.088;2023-11-21T12:05:31;97563.44;;;5.32
73265;BMP280;61493;51.008;14.088;2023-11-21T12:08:11;97562.53;;;5.22
73265;BMP280;61493;51.008;14.088;2023-11-21T12:10:38;97564.16;;;5.16
73265;BMP280;61493;51.008;14.088;2023-11-21T12:13:09;97566.59;;;5.07
73265;BMP280;61493;51.008;14.088;2023-11-21T12:15:38;97570.38;;;5.06
73265;BMP280;61493;51.008;14.088;2023-11-21T12:18:05;97571.97;;;5.00
73265;BMP280;61493;51.008;14.088;2023-11-21T12:20:32;97577.97;;;5.00
73265;BMP280;61493;51.008;14.088;2023-11-21T12:23:03;97568.78;;;4.92
73265;BMP280;61493;51.008;14.088;2023-11-21T12:25:30;97584.22;;;4.90
73265;BMP280;61493;51.008;14.088;2023-11-21T12:27:58;97583.16;;;4.84
73265;BMP280;61493;51.008;14.088;2023-11-21T12:30:28;97588.91;;;4.79
73265;BMP280;61493;51.008;14.088;2023-11-21T12:32:56;97596.03;;;4.78
73265;BMP280;61493;51.008;14.088;2023-11-21T12:35:24;97598.84;;;4.68
73265;BMP280;61493;51.008;14.088;2023-11-21T12:37:51;97611.78;;;4.58
73265;BMP280;61493;51.008;14.088;2023-11-21T12:40:17;97617.22;;;4.48
73265;BMP280;61493;51.008;14.088;2023-11-21T12:42:48;97612.81;;;4.41
73265;BMP280;61493;51.008;14.088;2023-11-21T12:47:46;97618.84;;;4.18
73265;BMP280;61493;51.008;14.088;2023-11-21T12:50:12;97622.53;;;4.21
73265;BMP280;61493;51.008;14.088;2023-11-21T12:52:47;97612.22;;;4.10
73265;BMP280;61493;51.008;14.088;2023-11-21T12:55:22;97624.59;;;4.09
73265;BMP280;61493;51.008;14.088;2023-11-21T12:57:57;97631.03;;;4.05
73265;BMP280;61493;51.008;14.088;2023-11-21T13:00:31;97635.97;;;3.99
73265;BMP280;61493;51.008;14.088;2023-11-21T13:02:58;97643.16;;;3.95
73265;BMP280;61493;51.008;14.088;2023-11-21T13:07:56;97641.31;;;3.96
73265;BMP280;61493;51.008;14.088;2023-11-21T13:10:26;97648.75;;;3.97
73265;BMP280;61493;51.008;14.088;2023-11-21T13:12:56;97649.56;;;3.94
73265;BMP280;61493;51.008;14.088;2023-11-21T13:15:26;97649.63;;;3.87
73265;BMP280;61493;51.008;14.088;2023-11-21T13:17:52;97650.41;;;3.84
73265;BMP280;61493;51.008;14.088;2023-11-21T13:20:19;97652.34;;;3.80
73265;BMP280;61493;51.008;14.088;2023-11-21T13:22:53;97651.22;;;3.81
73265;BMP280;61493;51.008;14.088;2023-11-21T13:25:20;97646.84;;;3.74
73265;BMP280;61493;51.008;14.088;2023-11-21T13:27:46;97657.97;;;3.78
73265;BMP280;61493;51.008;14.088;2023-11-21T13:30:14;97642.25;;;3.78
73265;BMP280;61493;51.008;14.088;2023-11-21T13:32:48;97662.44;;;3.81
73265;BMP280;61493;51.008;14.088;2023-11-21T13:35:18;97661.47;;;3.72
73265;BMP280;61493;51.008;14.088;2023-11-21T13:37:50;97666.34;;;3.70
73265;BMP280;61493;51.008;14.088;2023-11-21T13:40:19;97668.97;;;3.70
73265;BMP280;61493;51.008;14.088;2023-11-21T13:42:48;97675.72;;;3.71
73265;BMP280;61493;51.008;14.088;2023-11-21T13:45:13;97677.25;;;3.64
73265;BMP280;61493;51.008;14.088;2023-11-21T13:47:39;97687.41;;;3.62
73265;BMP280;61493;51.008;14.088;2023-11-21T13:50:05;97686.28;;;3.63
73265;BMP280;61493;51.008;14.088;2023-11-21T13:52:39;97688.91;;;3.63
73265;BMP280;61493;51.008;14.088;2023-11-21T13:55:04;97699.00;;;3.61
73265;BMP280;61493;51.008;14.088;2023-11-21T13:57:31;97691.94;;;3.58
73265;BMP280;61493;51.008;14.088;2023-11-21T13:59:57;97696.75;;;3.63
73265;BMP280;61493;51.008;14.088;2023-11-21T14:02:24;97701.63;;;3.61
73265;BMP280;61493;51.008;14.088;2023-11-21T14:05:00;97699.09;;;3.54
73265;BMP280;61493;51.008;14.088;2023-11-21T14:07:33;97706.97;;;3.54
73265;BMP280;61493;51.008;14.088;2023-11-21T14:10:02;97704.81;;;3.49
73265;BMP280;61493;51.008;14.088;2023-11-21T14:12:28;97709.31;;;3.49
73265;BMP280;61493;51.008;14.088;2023-11-21T14:14:54;97708.94;;;3.47
73265;BMP280;61493;51.008;14.088;2023-11-21T14:17:20;97713.13;;;3.40
73265;BMP280;61493;51.008;14.088;2023-11-21T14:19:47;97712.03;;;3.38